createdAt,value
2018-11-03T00:00:18.066Z,17.7
2018-11-03T00:01:07.249Z,17.7
2018-11-03T00:01:57.652Z,17.7
2018-11-03T00:02:47.493Z,17.7
2018-11-03T00:03:37.444Z,17.7
2018-11-03T00:04:26.409Z,17.7
2018-11-03T00:05:18.585Z,17.7
2018-11-03T00:06:08.691Z,17.7
2018-11-03T00:25:06.419Z,17.6
2018-11-03T00:25:54.440Z,17.6
2018-11-03T00:26:45.872Z,17.6
2018-11-03T00:27:36.436Z,17.6
2018-11-03T00:28:28.228Z,17.6
2018-11-03T00:29:17.275Z,17.6
2018-11-03T00:30:05.282Z,17.6
2018-11-03T00:30:56.597Z,17.6
2018-11-03T00:31:48.435Z,17.6
2018-11-03T00:32:35.992Z,17.6
2018-11-03T00:33:26.965Z,17.6
2018-11-03T00:34:16.679Z,17.6
2018-11-03T00:35:09.082Z,17.6
2018-11-03T00:35:57.749Z,17.6
2018-11-03T00:36:45.842Z,17.6
2018-11-03T00:37:36.451Z,17.6
2018-11-03T00:38:27.942Z,17.6
2018-11-03T00:39:16.175Z,17.6
2018-11-03T00:40:07.627Z,17.6
2018-11-03T00:40:58.077Z,17.6
2018-11-03T00:41:47.970Z,17.6
2018-11-03T00:42:37.610Z,17.6
2018-11-03T00:43:26.856Z,17.6
2018-11-03T00:44:17.259Z,17.6
2018-11-03T00:45:08.687Z,17.6
2018-11-03T00:45:56.606Z,17.6
2018-11-03T00:46:48.322Z,17.6
2018-11-03T00:47:38.269Z,17.6
2018-11-03T00:48:29.851Z,17.6
2018-11-03T00:49:18.159Z,17.6
2018-11-03T00:50:07.421Z,17.6
2018-11-03T00:50:58.401Z,17.6
2018-11-03T00:51:49.992Z,17.6
2018-11-03T00:52:38.898Z,17.6
2018-11-03T00:53:29.044Z,17.6
2018-11-03T00:54:18.752Z,17.6
2018-11-03T00:55:08.596Z,17.6
2018-11-03T00:55:59.766Z,17.6
2018-11-03T00:56:49.481Z,17.6
2018-11-03T00:57:38.779Z,17.6
2018-11-03T00:58:29.290Z,17.6
2018-11-03T00:59:18.853Z,17.6
2018-11-03T01:00:07.878Z,17.6
2018-11-03T01:00:58.617Z,17.6
2018-11-03T01:01:48.774Z,17.6
2018-11-03T01:02:40.072Z,17.6
2018-11-03T01:03:29.525Z,17.5
2018-11-03T01:04:19.056Z,17.5
2018-11-03T01:05:10.280Z,17.5
2018-11-03T01:05:59.191Z,17.6
2018-11-03T01:06:50.155Z,17.6
2018-11-03T01:07:39.525Z,17.5
2018-11-03T01:08:29.600Z,17.6
2018-11-03T01:09:19.937Z,17.6
2018-11-03T01:10:09.933Z,17.5
2018-11-03T01:11:00.030Z,17.5
2018-11-03T01:11:49.769Z,17.5
2018-11-03T01:12:39.250Z,17.5
2018-11-03T01:13:27.602Z,17.5
2018-11-03T01:14:19.180Z,17.5
2018-11-03T01:15:09.722Z,17.5
2018-11-03T01:15:59.502Z,17.5
2018-11-03T01:16:50.322Z,17.5
2018-11-03T01:17:40.861Z,17.5
2018-11-03T01:18:30.403Z,17.5
2018-11-03T01:19:21.159Z,17.5
2018-11-03T01:20:10.667Z,17.5
2018-11-03T01:21:00.967Z,17.5
2018-11-03T01:21:49.984Z,17.5
2018-11-03T01:22:40.357Z,17.5
2018-11-03T01:23:31.090Z,17.5
2018-11-03T01:24:20.637Z,17.5
2018-11-03T01:25:10.142Z,17.5
2018-11-03T01:26:01.359Z,17.4
2018-11-03T01:26:51.026Z,17.5
2018-11-03T01:27:41.237Z,17.5
2018-11-03T01:28:30.741Z,17.5
2018-11-03T01:29:21.109Z,17.5
2018-11-03T01:30:11.215Z,17.5
2018-11-03T01:31:00.079Z,17.5
2018-11-03T01:31:51.426Z,17.5
2018-11-03T01:32:42.830Z,17.4
2018-11-03T01:33:31.548Z,17.4
2018-11-03T01:34:21.676Z,17.4
2018-11-03T01:35:11.698Z,17.4
2018-11-03T01:36:00.609Z,17.4
2018-11-03T01:36:51.483Z,17.4
2018-11-03T01:37:41.916Z,17.4
2018-11-03T01:38:31.719Z,17.4
2018-11-03T01:39:22.436Z,17.4
2018-11-03T01:40:11.926Z,17.4
2018-11-03T01:41:02.151Z,17.4
2018-11-03T01:41:51.598Z,17.4
2018-11-03T01:42:42.933Z,17.4
2018-11-03T01:43:32.620Z,17.4
2018-11-03T01:44:21.503Z,17.4
2018-11-03T01:45:10.125Z,17.4
2018-11-03T01:46:01.156Z,17.4
2018-11-03T01:46:51.948Z,17.4
2018-11-03T01:47:42.210Z,17.4
2018-11-03T01:48:31.966Z,17.4
2018-11-03T01:49:21.752Z,17.4
2018-11-03T01:50:13.162Z,17.4
2018-11-03T01:51:03.325Z,17.4
2018-11-03T01:51:52.122Z,17.4
2018-11-03T01:52:42.406Z,17.4
2018-11-03T01:53:31.146Z,17.4
2018-11-03T01:54:23.473Z,17.4
2018-11-03T01:55:13.357Z,17.4
2018-11-03T01:56:02.734Z,17.4
2018-11-03T01:56:52.760Z,17.4
2018-11-03T01:57:44.018Z,17.4
2018-11-03T01:58:32.299Z,17.4
2018-11-03T01:59:23.080Z,17.4
2018-11-03T02:00:12.447Z,17.4
2018-11-03T02:01:03.350Z,17.4
2018-11-03T02:01:52.572Z,17.4
2018-11-03T02:02:43.025Z,17.4
2018-11-03T02:03:32.570Z,17.4
2018-11-03T02:04:22.920Z,17.4
2018-11-03T02:05:13.584Z,17.4
2018-11-03T02:06:03.570Z,17.4
2018-11-03T02:06:53.222Z,17.4
2018-11-03T02:07:44.512Z,17.4
2018-11-03T02:08:35.227Z,17.4
2018-11-03T02:09:25.088Z,17.4
2018-11-03T02:10:13.623Z,17.4
2018-11-03T02:11:04.407Z,17.4
2018-11-03T02:11:52.677Z,17.4
2018-11-03T02:12:46.617Z,17.4
2018-11-03T02:13:35.182Z,17.4
2018-11-03T02:14:24.899Z,17.4
2018-11-03T02:15:14.550Z,17.4
2018-11-03T02:16:07.369Z,17.4
2018-11-03T02:16:55.134Z,17.4
2018-11-03T02:17:44.626Z,17.4
2018-11-03T02:18:34.949Z,17.4
2018-11-03T02:19:26.497Z,17.4
2018-11-03T02:20:14.688Z,17.4
2018-11-03T02:21:05.364Z,17.4
2018-11-03T02:21:55.424Z,17.4
2018-11-03T02:22:44.752Z,17.3
2018-11-03T02:23:34.583Z,17.4
2018-11-03T02:24:24.374Z,17.4
2018-11-03T02:25:15.404Z,17.3
2018-11-03T02:26:05.267Z,17.3
2018-11-03T02:26:55.444Z,17.3
2018-11-03T02:27:44.463Z,17.4
2018-11-03T02:28:33.871Z,17.3
2018-11-03T02:29:24.991Z,17.4
2018-11-03T02:30:15.584Z,17.4
2018-11-03T02:31:05.663Z,17.3
2018-11-03T02:31:55.753Z,17.4
2018-11-03T02:32:46.248Z,17.3
2018-11-03T02:33:35.865Z,17.3
2018-11-03T02:34:25.297Z,17.3
2018-11-03T02:35:16.436Z,17.3
2018-11-03T02:36:07.584Z,17.3
2018-11-03T02:36:55.778Z,17.3
2018-11-03T02:37:45.646Z,17.3
2018-11-03T02:38:34.962Z,17.3
2018-11-03T02:39:26.622Z,17.3
2018-11-03T02:40:15.599Z,17.3
2018-11-03T02:41:06.875Z,17.3
2018-11-03T02:41:56.055Z,17.3
2018-11-03T02:42:47.902Z,17.3
2018-11-03T02:43:35.463Z,17.3
2018-11-03T02:44:25.540Z,17.3
2018-11-03T02:45:16.713Z,17.3
2018-11-03T02:46:06.739Z,17.3
2018-11-03T02:46:55.283Z,17.3
2018-11-03T02:47:47.399Z,17.3
2018-11-03T02:48:37.227Z,17.3
2018-11-03T02:49:28.636Z,17.3
2018-11-03T02:50:16.988Z,17.3
2018-11-03T02:51:06.496Z,17.3
2018-11-03T02:51:57.223Z,17.3
2018-11-03T02:52:47.962Z,17.3
2018-11-03T02:53:36.786Z,17.3
2018-11-03T02:54:27.595Z,17.3
2018-11-03T02:55:16.912Z,17.3
2018-11-03T02:56:09.157Z,17.3
2018-11-03T02:56:57.149Z,17.3
2018-11-03T02:57:46.797Z,17.3
2018-11-03T02:58:37.973Z,17.3
2018-11-03T02:59:28.546Z,17.3
2018-11-03T03:00:17.991Z,17.3
2018-11-03T03:01:08.386Z,17.3
2018-11-03T03:01:58.753Z,17.3
2018-11-03T03:02:48.420Z,17.3
2018-11-03T03:03:38.511Z,17.3
2018-11-03T03:04:28.449Z,17.3
2018-11-03T03:05:18.051Z,17.3
2018-11-03T03:06:08.598Z,17.3
2018-11-03T03:06:59.461Z,17.3
2018-11-03T03:07:47.493Z,17.3
2018-11-03T03:08:38.693Z,17.3
2018-11-03T03:09:28.804Z,17.3
2018-11-03T03:10:18.368Z,17.3
2018-11-03T03:11:08.415Z,17.3
2018-11-03T03:11:59.558Z,17.3
2018-11-03T03:12:49.608Z,17.3
2018-11-03T03:13:37.963Z,17.3
2018-11-03T03:14:28.412Z,17.3
2018-11-03T03:15:19.367Z,17.2
2018-11-03T03:16:09.704Z,17.3
2018-11-03T03:16:59.105Z,17.3
2018-11-03T03:17:47.838Z,17.3
2018-11-03T03:18:38.027Z,17.3
2018-11-03T03:19:28.550Z,17.3
2018-11-03T03:20:18.817Z,17.3
2018-11-03T03:21:09.107Z,17.3
2018-11-03T03:21:59.232Z,17.2
2018-11-03T03:22:48.668Z,17.3
2018-11-03T03:23:38.642Z,17.3
2018-11-03T03:24:28.805Z,17.3
2018-11-03T03:25:19.554Z,17.3
2018-11-03T03:26:09.000Z,17.2
2018-11-03T03:27:00.324Z,17.2
2018-11-03T03:27:49.150Z,17.2
2018-11-03T03:28:39.831Z,17.2
2018-11-03T03:29:29.873Z,17.2
2018-11-03T03:30:20.821Z,17.2
2018-11-03T03:31:10.272Z,17.2
2018-11-03T03:31:58.226Z,17.2
2018-11-03T03:32:51.688Z,17.2
2018-11-03T03:33:39.610Z,17.2
2018-11-03T03:34:30.669Z,17.2
2018-11-03T03:35:21.608Z,17.2
2018-11-03T03:36:10.444Z,17.2
2018-11-03T03:36:59.789Z,17.2
2018-11-03T03:37:50.160Z,17.2
2018-11-03T03:38:40.040Z,17.2
2018-11-03T03:39:30.856Z,17.2
2018-11-03T03:40:20.869Z,17.2
2018-11-03T03:41:10.621Z,17.2
2018-11-03T03:42:00.831Z,17.2
2018-11-03T03:42:51.184Z,17.2
2018-11-03T03:43:40.724Z,17.2
2018-11-03T03:44:30.594Z,17.2
2018-11-03T03:45:20.660Z,17.2
2018-11-03T03:46:10.479Z,17.2
2018-11-03T03:47:01.041Z,17.2
2018-11-03T03:47:51.383Z,17.2
2018-11-03T03:48:40.466Z,17.2
2018-11-03T03:49:31.569Z,17.2
2018-11-03T03:50:21.607Z,17.2
2018-11-03T03:51:11.551Z,17.1
2018-11-03T03:52:01.508Z,17.1
2018-11-03T03:52:50.926Z,17.2
2018-11-03T03:53:41.652Z,17.2
2018-11-03T03:54:32.298Z,17.1
2018-11-03T03:55:21.991Z,17.2
2018-11-03T03:56:11.925Z,17.1
2018-11-03T03:57:01.530Z,17.1
2018-11-03T03:57:51.093Z,17.1
2018-11-03T03:58:41.441Z,17.1
2018-11-03T03:59:32.029Z,17.1
2018-11-03T04:00:20.852Z,17.1
2018-11-03T04:01:11.945Z,17.1
2018-11-03T04:02:01.953Z,17.1
2018-11-03T04:02:53.310Z,17.1
2018-11-03T04:03:42.423Z,17.1
2018-11-03T04:04:32.287Z,17.2
2018-11-03T04:05:23.078Z,17.1
2018-11-03T04:06:13.800Z,17.1
2018-11-03T04:07:03.390Z,17.1
2018-11-03T04:07:53.813Z,17.1
2018-11-03T04:08:43.345Z,17.1
2018-11-03T04:09:33.275Z,17.1
2018-11-03T04:10:22.417Z,17.1
2018-11-03T04:11:13.042Z,17.1
2018-11-03T04:12:02.230Z,17.1
2018-11-03T04:12:53.073Z,17.1
2018-11-03T04:13:42.717Z,17.1
2018-11-03T04:14:32.465Z,17.1
2018-11-03T04:15:23.607Z,17.1
2018-11-03T04:16:15.365Z,17.1
2018-11-03T04:17:03.967Z,17.1
2018-11-03T04:17:53.766Z,17.1
2018-11-03T04:18:42.914Z,17.1
2018-11-03T04:19:34.839Z,17.1
2018-11-03T04:20:23.460Z,17.1
2018-11-03T04:21:14.147Z,17.1
2018-11-03T04:22:02.927Z,17.1
2018-11-03T04:22:53.442Z,17.1
2018-11-03T04:23:43.297Z,17.1
2018-11-03T04:24:34.312Z,17.1
2018-11-03T04:25:39.124Z,17.1
2018-11-03T04:26:13.785Z,17.1
2018-11-03T04:27:04.371Z,17.1
2018-11-03T04:27:54.527Z,17.1
2018-11-03T04:28:43.922Z,17.1
2018-11-03T04:29:34.244Z,17.1
2018-11-03T04:30:24.634Z,17.1
2018-11-03T04:31:14.046Z,17.1
2018-11-03T04:32:04.520Z,17.1
2018-11-03T04:32:56.744Z,17.1
2018-11-03T04:33:43.453Z,17.1
2018-11-03T04:34:34.146Z,17.1
2018-11-03T04:35:23.954Z,17.1
2018-11-03T04:36:16.571Z,17.1
2018-11-03T04:54:15.340Z,17.1
2018-11-03T04:55:54.650Z,17.1
2018-11-03T04:57:34.962Z,17.1
2018-11-03T05:03:26.675Z,17.1
2018-11-03T05:25:57.228Z,16.9
2018-11-03T05:26:47.451Z,16.9
2018-11-03T05:28:28.111Z,16.9
2018-11-03T05:29:17.323Z,16.9
2018-11-03T05:30:07.635Z,16.9
2018-11-03T05:30:57.858Z,16.9
2018-11-03T05:33:27.415Z,16.9
2018-11-03T05:35:08.936Z,16.9
2018-11-03T05:35:58.040Z,16.9
2018-11-03T05:36:47.833Z,16.9
2018-11-03T05:37:36.812Z,16.9
2018-11-03T05:38:27.917Z,16.9
2018-11-03T05:39:17.830Z,16.9
2018-11-03T05:40:07.999Z,16.9
2018-11-03T05:40:58.332Z,16.9
2018-11-03T05:41:49.389Z,16.9
2018-11-03T05:42:38.617Z,16.9
2018-11-03T05:43:28.294Z,16.9
2018-11-03T05:44:17.937Z,16.9
2018-11-03T05:45:08.429Z,16.9
2018-11-03T05:45:59.264Z,16.9
2018-11-03T05:46:49.987Z,16.9
2018-11-03T05:47:38.754Z,16.9
2018-11-03T05:48:28.299Z,16.9
2018-11-03T05:49:18.322Z,16.9
2018-11-03T05:50:08.550Z,16.9
2018-11-03T05:51:00.993Z,16.9
2018-11-03T05:51:49.049Z,16.9
2018-11-03T05:52:39.447Z,16.9
2018-11-03T05:53:29.656Z,16.9
2018-11-03T05:54:18.649Z,16.9
2018-11-03T05:55:08.489Z,16.9
2018-11-03T05:55:58.629Z,16.9
2018-11-03T05:56:50.026Z,16.9
2018-11-03T05:57:39.150Z,16.9
2018-11-03T05:58:28.924Z,16.9
2018-11-03T05:59:19.163Z,16.9
2018-11-03T06:00:10.001Z,16.9
2018-11-03T06:01:00.189Z,16.9
2018-11-03T06:01:49.263Z,16.9
2018-11-03T06:02:39.538Z,16.9
2018-11-03T06:03:29.564Z,16.9
2018-11-03T06:04:20.723Z,16.9
2018-11-03T06:05:10.854Z,16.9
2018-11-03T06:06:00.671Z,16.9
2018-11-03T06:06:50.404Z,16.9
2018-11-03T06:07:40.525Z,16.9
2018-11-03T06:08:29.911Z,16.9
2018-11-03T06:09:20.363Z,16.9
2018-11-03T06:10:09.806Z,16.9
2018-11-03T06:11:00.608Z,16.9
2018-11-03T06:11:51.135Z,16.9
2018-11-03T06:12:40.529Z,16.9
2018-11-03T06:13:31.166Z,16.9
2018-11-03T06:14:20.823Z,16.9
2018-11-03T06:15:10.568Z,16.9
2018-11-03T06:16:03.490Z,16.9
2018-11-03T06:16:50.831Z,16.9
2018-11-03T06:17:41.036Z,16.9
2018-11-03T06:18:31.201Z,16.9
2018-11-03T06:19:21.551Z,16.9
2018-11-03T06:20:10.033Z,16.9
2018-11-03T06:21:01.602Z,16.9
2018-11-03T06:21:52.285Z,16.9
2018-11-03T06:22:45.553Z,16.9
2018-11-03T06:23:32.897Z,16.9
2018-11-03T06:24:21.258Z,16.9
2018-11-03T06:25:10.655Z,16.9
2018-11-03T06:26:02.028Z,16.9
2018-11-03T06:26:53.418Z,16.9
2018-11-03T06:27:42.223Z,16.9
2018-11-03T06:28:33.062Z,16.9
2018-11-03T06:29:22.890Z,16.9
2018-11-03T06:30:12.167Z,16.9
2018-11-03T06:31:02.684Z,16.9
2018-11-03T06:31:51.907Z,16.9
2018-11-03T06:32:43.820Z,16.9
2018-11-03T06:33:31.944Z,16.9
2018-11-03T06:34:23.350Z,16.9
2018-11-03T06:35:14.835Z,16.9
2018-11-03T06:36:03.844Z,16.9
2018-11-03T06:36:52.049Z,16.9
2018-11-03T06:37:42.734Z,16.9
2018-11-03T06:38:32.788Z,16.9
2018-11-03T06:39:23.817Z,16.9
2018-11-03T06:40:13.797Z,16.9
2018-11-03T06:41:02.679Z,16.9
2018-11-03T06:41:53.499Z,16.9
2018-11-03T06:42:44.273Z,16.9
2018-11-03T06:43:31.857Z,16.9
2018-11-03T06:44:21.879Z,16.9
2018-11-03T06:45:13.701Z,16.9
2018-11-03T06:46:04.448Z,16.9
2018-11-03T06:46:53.307Z,16.9
2018-11-03T06:47:46.158Z,16.9
2018-11-03T06:48:32.855Z,16.9
2018-11-03T06:49:25.560Z,16.9
2018-11-03T06:50:12.666Z,16.9
2018-11-03T06:51:03.981Z,16.9
2018-11-03T06:51:52.280Z,16.9
2018-11-03T06:52:45.481Z,16.9
2018-11-03T06:53:34.358Z,16.9
2018-11-03T06:54:24.120Z,16.9
2018-11-03T06:55:13.119Z,16.9
2018-11-03T06:56:06.847Z,16.9
2018-11-03T06:56:55.075Z,16.9
2018-11-03T06:57:43.415Z,16.9
2018-11-03T06:58:35.190Z,16.9
2018-11-03T06:59:25.940Z,16.9
2018-11-03T07:00:14.758Z,16.9
2018-11-03T07:01:04.845Z,16.9
2018-11-03T07:01:54.037Z,16.9
2018-11-03T07:02:45.812Z,16.9
2018-11-03T07:03:35.213Z,16.9
2018-11-03T07:04:24.955Z,16.9
2018-11-03T07:05:17.281Z,16.9
2018-11-03T07:06:07.131Z,16.9
2018-11-03T07:06:55.393Z,16.9
2018-11-03T07:07:45.056Z,16.9
2018-11-03T07:08:35.448Z,16.9
2018-11-03T07:09:26.341Z,16.9
2018-11-03T07:10:15.999Z,16.9
2018-11-03T07:11:06.388Z,16.9
2018-11-03T07:11:55.637Z,16.9
2018-11-03T07:12:52.004Z,16.9
2018-11-03T07:13:36.128Z,16.8
2018-11-03T07:14:26.358Z,16.9
2018-11-03T07:15:16.540Z,16.9
2018-11-03T07:16:08.043Z,16.9
2018-11-03T07:16:56.213Z,16.9
2018-11-03T07:17:47.218Z,16.9
2018-11-03T07:18:35.681Z,16.8
2018-11-03T07:19:28.292Z,16.9
2018-11-03T07:20:14.885Z,16.9
2018-11-03T07:21:06.915Z,16.9
2018-11-03T07:21:57.896Z,16.8
2018-11-03T07:22:48.150Z,16.9
2018-11-03T07:23:36.277Z,16.8
2018-11-03T07:24:27.370Z,16.8
2018-11-03T07:25:15.595Z,16.9
2018-11-03T07:26:08.186Z,16.9
2018-11-03T07:26:57.484Z,16.9
2018-11-03T07:27:46.197Z,16.8
2018-11-03T07:28:37.149Z,16.9
2018-11-03T07:29:27.010Z,16.9
2018-11-03T07:30:16.917Z,16.9
2018-11-03T07:31:06.699Z,16.8
2018-11-03T07:31:57.137Z,16.9
2018-11-03T07:32:48.052Z,16.8
2018-11-03T07:33:37.458Z,16.9
2018-11-03T07:34:26.845Z,16.8
2018-11-03T07:35:18.457Z,16.9
2018-11-03T07:36:09.171Z,16.9
2018-11-03T07:36:58.604Z,16.8
2018-11-03T07:37:48.358Z,16.8
2018-11-03T07:38:38.951Z,16.8
2018-11-03T07:39:27.825Z,16.8
2018-11-03T07:40:18.157Z,16.8
2018-11-03T07:41:10.366Z,16.8
2018-11-03T07:41:57.054Z,16.8
2018-11-03T07:42:49.592Z,16.9
2018-11-03T07:43:37.993Z,16.9
2018-11-03T07:44:27.596Z,16.8
2018-11-03T07:45:17.676Z,16.8
2018-11-03T07:46:08.443Z,16.8
2018-11-03T07:46:57.676Z,16.8
2018-11-03T07:47:47.632Z,16.8
2018-11-03T07:48:38.282Z,16.8
2018-11-03T07:49:28.883Z,16.8
2018-11-03T07:50:18.278Z,16.8
2018-11-03T07:51:07.875Z,16.8
2018-11-03T07:51:58.398Z,16.8
2018-11-03T07:52:48.541Z,16.9
2018-11-03T07:53:38.246Z,16.8
2018-11-03T07:54:28.411Z,16.9
2018-11-03T07:55:18.845Z,16.9
2018-11-03T07:56:06.895Z,16.8
2018-11-03T07:56:59.598Z,16.9
2018-11-03T07:57:49.083Z,16.9
2018-11-03T07:58:39.193Z,16.9
2018-11-03T07:59:28.035Z,16.8
2018-11-03T08:00:19.999Z,16.9
2018-11-03T08:01:09.491Z,16.9
2018-11-03T08:01:59.090Z,16.9
2018-11-03T08:02:48.565Z,16.9
2018-11-03T08:03:38.772Z,16.9
2018-11-03T08:04:28.486Z,16.8
2018-11-03T08:05:19.557Z,16.9
2018-11-03T08:06:08.961Z,16.9
2018-11-03T08:06:58.565Z,16.9
2018-11-03T08:07:50.249Z,16.9
2018-11-03T08:08:40.572Z,16.8
2018-11-03T08:09:30.323Z,16.9
2018-11-03T08:10:19.306Z,16.9
2018-11-03T08:11:09.123Z,16.9
2018-11-03T08:12:00.157Z,16.9
2018-11-03T08:12:49.159Z,16.9
2018-11-03T08:13:41.201Z,16.9
2018-11-03T08:14:29.787Z,16.9
2018-11-03T08:15:19.168Z,16.9
2018-11-03T08:16:09.329Z,16.9
2018-11-03T08:16:58.907Z,16.9
2018-11-03T08:17:50.251Z,16.9
2018-11-03T08:18:39.759Z,16.9
2018-11-03T08:19:30.211Z,16.9
2018-11-03T08:20:19.809Z,16.9
2018-11-03T08:21:10.684Z,16.9
2018-11-03T08:22:00.771Z,16.9
2018-11-03T08:22:50.886Z,16.9
2018-11-03T08:23:40.779Z,16.9
2018-11-03T08:24:30.320Z,16.9
2018-11-03T08:25:21.762Z,16.9
2018-11-03T08:26:10.169Z,16.9
2018-11-03T08:27:00.362Z,16.9
2018-11-03T08:27:50.386Z,16.9
2018-11-03T08:28:40.047Z,16.9
2018-11-03T08:29:30.735Z,16.9
2018-11-03T08:30:21.056Z,16.9
2018-11-03T08:31:10.616Z,16.9
2018-11-03T08:32:01.710Z,16.9
2018-11-03T08:32:51.584Z,16.9
2018-11-03T08:33:41.388Z,16.9
2018-11-03T08:34:31.931Z,16.9
2018-11-03T08:35:21.166Z,16.9
2018-11-03T08:36:11.003Z,16.9
2018-11-03T08:37:01.756Z,16.9
2018-11-03T08:37:51.678Z,16.9
2018-11-03T08:38:41.657Z,16.9
2018-11-03T08:39:33.884Z,16.9
2018-11-03T08:40:21.972Z,16.9
2018-11-03T08:41:12.196Z,16.9
2018-11-03T08:42:02.075Z,16.9
2018-11-03T08:42:54.335Z,16.9
2018-11-03T08:43:42.435Z,16.9
2018-11-03T08:44:31.915Z,16.9
2018-11-03T08:45:21.977Z,16.9
2018-11-03T08:46:12.214Z,16.9
2018-11-03T08:47:03.192Z,16.9
2018-11-03T08:47:52.690Z,16.9
2018-11-03T08:48:43.696Z,16.9
2018-11-03T08:49:34.072Z,16.9
2018-11-03T08:50:22.199Z,16.9
2018-11-03T08:51:12.576Z,16.9
2018-11-03T08:52:03.610Z,16.9
2018-11-03T09:08:48.487Z,16.8
2018-11-03T09:09:37.825Z,16.8
2018-11-03T09:10:27.152Z,16.8
2018-11-03T09:11:18.443Z,16.8
2018-11-03T09:12:08.151Z,16.9
2018-11-03T09:12:58.567Z,16.9
2018-11-03T09:13:49.369Z,16.8
2018-11-03T09:14:40.983Z,16.9
2018-11-03T09:15:29.072Z,16.8
2018-11-03T09:16:18.285Z,16.8
2018-11-03T09:17:08.893Z,16.9
2018-11-03T09:17:57.597Z,16.9
2018-11-03T09:18:49.220Z,16.9
2018-11-03T09:19:39.607Z,16.9
2018-11-03T09:20:28.467Z,16.9
2018-11-03T09:21:19.901Z,16.9
2018-11-03T09:22:09.159Z,16.9
2018-11-03T09:22:59.399Z,16.8
2018-11-03T09:23:49.869Z,16.9
2018-11-03T09:24:40.494Z,16.9
2018-11-03T09:25:29.345Z,16.9
2018-11-03T09:26:18.671Z,16.8
2018-11-03T09:27:10.131Z,16.8
2018-11-03T09:27:59.139Z,16.9
2018-11-03T09:28:49.386Z,16.9
2018-11-03T09:29:39.973Z,16.9
2018-11-03T09:30:29.813Z,16.9
2018-11-03T09:31:20.488Z,16.9
2018-11-03T09:32:12.273Z,16.9
2018-11-03T09:33:00.169Z,16.9
2018-11-03T09:33:50.869Z,16.9
2018-11-03T09:34:41.605Z,16.9
2018-11-03T09:35:30.519Z,16.9
2018-11-03T09:36:20.726Z,16.9
2018-11-03T09:37:10.656Z,16.9
2018-11-03T09:38:00.461Z,16.9
2018-11-03T09:38:51.435Z,16.9
2018-11-03T09:39:40.380Z,16.9
2018-11-03T09:40:29.498Z,16.9
2018-11-03T09:41:20.371Z,16.9
2018-11-03T09:42:10.048Z,16.9
2018-11-03T09:43:02.148Z,16.9
2018-11-03T09:43:50.018Z,16.9
2018-11-03T09:44:41.164Z,16.9
2018-11-03T09:45:30.923Z,16.9
2018-11-03T09:46:20.050Z,16.9
2018-11-03T09:47:10.033Z,16.9
2018-11-03T09:48:00.535Z,16.9
2018-11-03T09:48:49.995Z,16.9
2018-11-03T09:49:40.425Z,16.9
2018-11-03T09:50:31.076Z,16.9
2018-11-03T09:51:21.903Z,16.9
2018-11-03T09:52:10.813Z,16.9
2018-11-03T09:53:00.789Z,16.9
2018-11-03T09:53:53.313Z,16.9
2018-11-03T09:54:41.289Z,16.9
2018-11-03T09:55:31.877Z,16.9
2018-11-03T09:56:22.458Z,16.9
2018-11-03T09:57:11.875Z,16.9
2018-11-03T09:58:02.420Z,16.9
2018-11-03T09:58:51.438Z,16.9
2018-11-03T09:59:40.706Z,16.9
2018-11-03T10:00:32.728Z,16.9
2018-11-03T10:01:22.407Z,16.9
2018-11-03T10:02:11.170Z,16.9
2018-11-03T10:03:01.887Z,16.9
2018-11-03T10:03:52.140Z,16.9
2018-11-03T10:04:41.725Z,16.9
2018-11-03T10:05:33.219Z,16.9
2018-11-03T10:06:21.525Z,16.9
2018-11-03T10:07:13.620Z,16.9
2018-11-03T10:08:01.625Z,16.9
2018-11-03T10:08:51.532Z,16.9
2018-11-03T10:09:42.334Z,16.9
2018-11-03T10:10:35.660Z,16.9
2018-11-03T10:11:23.849Z,16.9
2018-11-03T10:12:12.591Z,16.9
2018-11-03T10:13:03.482Z,16.9
2018-11-03T10:13:54.937Z,16.9
2018-11-03T10:14:41.932Z,16.9
2018-11-03T10:15:32.054Z,16.9
2018-11-03T10:16:23.809Z,16.9
2018-11-03T10:17:14.436Z,16.9
2018-11-03T10:18:03.529Z,16.9
2018-11-03T10:18:52.816Z,16.9
2018-11-03T10:19:42.976Z,16.9
2018-11-03T10:20:34.591Z,16.9
2018-11-03T10:21:23.098Z,16.9
2018-11-03T10:39:44.593Z,17.1
2018-11-03T10:40:34.753Z,17.1
2018-11-03T10:41:25.045Z,17.1
2018-11-03T10:42:14.381Z,17.1
2018-11-03T10:43:04.962Z,17.1
2018-11-03T10:43:57.333Z,17.1
2018-11-03T10:44:45.177Z,17.1
2018-11-03T10:45:34.758Z,17.1
2018-11-03T10:46:28.238Z,17.1
2018-11-03T10:47:16.288Z,17.1
2018-11-03T10:48:03.872Z,17.1
2018-11-03T10:48:56.465Z,17.1
2018-11-03T10:49:45.357Z,17.1
2018-11-03T10:50:35.537Z,17.1
2018-11-03T10:51:25.883Z,17.1
2018-11-03T10:52:15.768Z,17.1
2018-11-03T10:53:05.845Z,17.1
2018-11-03T10:53:56.862Z,17.1
2018-11-03T10:54:44.879Z,17.1
2018-11-03T10:55:36.041Z,17.1
2018-11-03T10:56:25.149Z,17.1
2018-11-03T10:57:15.517Z,17.1
2018-11-03T10:58:07.579Z,17.1
2018-11-03T10:58:55.522Z,17.1
2018-11-03T10:59:46.240Z,17.1
2018-11-03T11:00:36.666Z,17.1
2018-11-03T11:01:27.357Z,17.1
2018-11-03T11:02:15.907Z,17.1
2018-11-03T11:03:06.120Z,17.1
2018-11-03T11:03:56.117Z,17.1
2018-11-03T11:04:47.034Z,17.1
2018-11-03T11:05:36.331Z,17.1
2018-11-03T11:06:26.371Z,17.1
2018-11-03T11:07:16.160Z,17.1
2018-11-03T11:08:06.713Z,17.1
2018-11-03T11:08:56.949Z,17.1
2018-11-03T11:09:46.713Z,17.1
2018-11-03T11:10:36.680Z,17.1
2018-11-03T11:11:26.803Z,17.1
2018-11-03T11:12:17.040Z,17.2
2018-11-03T11:13:07.763Z,17.2
2018-11-03T11:13:57.132Z,17.2
2018-11-03T11:14:45.765Z,17.2
2018-11-03T11:15:37.965Z,17.2
2018-11-03T11:16:29.552Z,17.2
2018-11-03T11:17:17.424Z,17.1
2018-11-03T11:18:08.945Z,17.2
2018-11-03T11:18:57.289Z,17.1
2018-11-03T11:19:48.703Z,17.2
2018-11-03T11:20:37.877Z,17.2
2018-11-03T11:21:28.954Z,17.2
2018-11-03T11:22:17.362Z,17.2
2018-11-03T11:23:07.554Z,17.2
2018-11-03T11:24:00.950Z,17.2
2018-11-03T11:24:49.365Z,17.2
2018-11-03T11:25:39.077Z,17.2
2018-11-03T11:26:28.866Z,17.2
2018-11-03T11:27:17.354Z,17.2
2018-11-03T11:28:08.078Z,17.2
2018-11-03T11:28:59.077Z,17.2
2018-11-03T11:29:48.961Z,17.2
2018-11-03T11:30:38.680Z,17.2
2018-11-03T11:31:30.336Z,17.2
2018-11-03T11:32:18.930Z,17.2
2018-11-03T11:33:08.626Z,17.2
2018-11-03T11:33:59.367Z,17.2
2018-11-03T11:34:49.748Z,17.2
2018-11-03T11:35:39.111Z,17.2
2018-11-03T11:36:28.961Z,17.2
2018-11-03T11:37:19.850Z,17.2
2018-11-03T11:38:09.794Z,17.2
2018-11-03T11:38:58.742Z,17.3
2018-11-03T11:39:49.102Z,17.3
2018-11-03T11:40:39.042Z,17.3
2018-11-03T11:41:30.709Z,17.3
2018-11-03T11:42:20.041Z,17.3
2018-11-03T11:43:08.252Z,17.3
2018-11-03T11:43:59.457Z,17.3
2018-11-03T11:44:49.484Z,17.3
2018-11-03T11:45:40.247Z,17.3
2018-11-03T11:46:29.539Z,17.3
2018-11-03T11:47:19.151Z,17.3
2018-11-03T11:48:10.282Z,17.3
2018-11-03T11:49:00.396Z,17.3
2018-11-03T11:49:49.991Z,17.3
2018-11-03T11:50:40.063Z,17.3
2018-11-03T11:51:31.363Z,17.3
2018-11-03T11:52:20.026Z,17.3
2018-11-03T11:53:11.012Z,17.3
2018-11-03T11:54:01.159Z,17.3
2018-11-03T11:54:52.758Z,17.3
2018-11-03T11:55:40.496Z,17.3
2018-11-03T11:56:30.318Z,17.3
2018-11-03T11:57:20.425Z,17.3
2018-11-03T11:58:12.719Z,17.3
2018-11-03T11:59:00.410Z,17.3
2018-11-03T11:59:50.998Z,17.3
2018-11-03T12:00:44.860Z,17.3
2018-11-03T12:01:31.053Z,17.3
2018-11-03T12:02:21.574Z,17.3
2018-11-03T12:03:10.643Z,17.3
2018-11-03T12:04:01.905Z,17.3
2018-11-03T12:04:51.962Z,17.3
2018-11-03T12:05:41.603Z,17.3
2018-11-03T12:06:31.423Z,17.3
2018-11-03T12:07:21.930Z,17.3
2018-11-03T12:08:11.711Z,17.3
2018-11-03T12:09:00.457Z,17.3
2018-11-03T12:09:50.897Z,17.3
2018-11-03T12:10:41.162Z,17.3
2018-11-03T12:11:31.037Z,17.3
2018-11-03T12:12:21.243Z,17.3
2018-11-03T12:13:11.713Z,17.3
2018-11-03T12:14:01.052Z,17.3
2018-11-03T12:14:51.959Z,17.3
2018-11-03T12:15:41.910Z,17.3
2018-11-03T12:16:31.531Z,17.3
2018-11-03T12:17:22.165Z,17.3
2018-11-03T12:18:11.192Z,17.3
2018-11-03T12:19:01.671Z,17.3
2018-11-03T12:19:52.469Z,17.3
2018-11-03T12:20:42.552Z,17.3
2018-11-03T12:21:31.981Z,17.3
2018-11-03T12:22:22.012Z,17.3
2018-11-03T12:23:12.877Z,17.4
2018-11-03T12:24:01.384Z,17.3
2018-11-03T12:24:53.412Z,17.3
2018-11-03T12:25:44.883Z,17.4
2018-11-03T12:26:33.246Z,17.4
2018-11-03T12:27:21.901Z,17.4
2018-11-03T12:28:13.144Z,17.4
2018-11-03T12:29:03.551Z,17.4
2018-11-03T12:29:52.996Z,17.4
2018-11-03T12:30:42.957Z,17.3
2018-11-03T12:31:33.569Z,17.4
2018-11-03T12:32:22.949Z,17.3
2018-11-03T12:33:13.044Z,17.4
2018-11-03T12:34:02.184Z,17.3
2018-11-03T12:34:55.886Z,17.3
2018-11-03T12:35:43.024Z,17.4
2018-11-03T12:36:33.698Z,17.3
2018-11-03T12:37:22.589Z,17.4
2018-11-03T12:38:14.056Z,17.3
2018-11-03T12:39:03.328Z,17.4
2018-11-03T12:39:53.508Z,17.4
2018-11-03T12:40:45.177Z,17.4
2018-11-03T12:41:36.888Z,17.4
2018-11-03T12:42:23.683Z,17.4
2018-11-03T12:43:13.491Z,17.4
2018-11-03T12:44:05.196Z,17.4
2018-11-03T12:44:55.815Z,17.4
2018-11-03T12:45:44.777Z,17.4
2018-11-03T12:46:34.356Z,17.4